Time;durP1;ratioP1;P1;durP2;ratioP2;P2;SDS_P1;SDS_P2;PMS_P1;PMS_P2;Temp;Humidity;BMP_temperature;BMP_pressure;BME280_temperature;BME280_humidity;BME280_pressure;Samples;Min_cycle;Max_cycle;Signal;HPM_P1;HPM_P2
2021/06/20 00:00:27;;;;;;;17.73;16.87;;;20.60;99.90;;;;;;5139226;27;20471;-70
2021/06/20 00:02:54;;;;;;;18.07;17.17;;;20.60;99.90;;;;;;5132266;27;20464;-70
2021/06/20 00:05:25;;;;;;;16.73;15.93;;;20.60;99.90;;;;;;5142278;27;20867;-70
2021/06/20 00:07:52;;;;;;;16.27;15.47;;;20.50;99.90;;;;;;5133731;27;20455;-71
2021/06/20 00:10:23;;;;;;;15.47;14.77;;;20.50;99.90;;;;;;5132932;27;20459;-71
2021/06/20 00:12:50;;;;;;;15.87;15.17;;;20.60;99.90;;;;;;5136453;27;20486;-71
2021/06/20 00:15:20;;;;;;;15.40;14.70;;;20.60;99.90;;;;;;5139729;27;20462;-71
2021/06/20 00:17:48;;;;;;;16.17;15.37;;;20.60;99.90;;;;;;5142092;27;20501;-71
2021/06/20 00:20:18;;;;;;;15.20;14.50;;;20.60;99.90;;;;;;5134501;27;20470;-70
2021/06/20 00:22:46;;;;;;;15.77;15.07;;;20.50;99.90;;;;;;5135461;27;20464;-71
2021/06/20 00:25:14;;;;;;;15.60;14.90;;;20.60;99.90;;;;;;5143940;27;20487;-71
2021/06/20 00:27:43;;;;;;;15.57;14.87;;;20.60;99.90;;;;;;5136808;27;20452;-71
2021/06/20 00:30:13;;;;;;;15.03;14.33;;;20.50;99.90;;;;;;5140510;27;20822;-71
2021/06/20 00:32:41;;;;;;;14.80;14.10;;;20.60;99.90;;;;;;5142212;27;20572;-74
2021/06/20 00:35:08;;;;;;;14.93;14.23;;;20.60;99.90;;;;;;5138226;27;20555;-74
2021/06/20 00:37:35;;;;;;;14.87;14.17;;;20.50;99.90;;;;;;5141171;27;20901;-73
2021/06/20 00:40:02;;;;;;;14.30;13.70;;;20.50;99.90;;;;;;5143134;27;20459;-73
2021/06/20 00:42:29;;;;;;;14.53;13.93;;;20.50;99.90;;;;;;5137012;27;20455;-74
2021/06/20 00:44:57;;;;;;;20.07;18.73;;;20.50;99.90;;;;;;5137122;27;20460;-72
2021/06/20 00:47:24;;;;;;;14.80;14.10;;;20.50;99.90;;;;;;5140299;27;20466;-73
2021/06/20 00:49:51;;;;;;;14.60;13.90;;;20.60;99.90;;;;;;5142463;27;20452;-71
2021/06/20 00:52:19;;;;;;;14.53;13.83;;;20.50;99.90;;;;;;5140807;27;20472;-71
2021/06/20 00:54:48;;;;;;;14.90;14.20;;;20.50;99.90;;;;;;5142058;27;20980;-73
2021/06/20 00:57:16;;;;;;;15.27;14.57;;;20.40;99.90;;;;;;5139545;27;20479;-71
2021/06/20 00:59:44;;;;;;;14.40;13.70;;;20.40;99.90;;;;;;5137698;27;20459;-70
2021/06/20 01:02:13;;;;;;;14.67;13.97;;;20.40;99.90;;;;;;5136445;27;20553;-71
2021/06/20 01:04:40;;;;;;;14.43;13.73;;;20.40;99.90;;;;;;5144055;27;20451;-71
2021/06/20 01:07:07;;;;;;;14.80;14.10;;;20.40;99.90;;;;;;5141905;27;20466;-71
2021/06/20 01:09:34;;;;;;;14.93;14.23;;;20.30;99.90;;;;;;5140183;27;20466;-71
2021/06/20 01:12:02;;;;;;;15.00;14.30;;;20.30;99.90;;;;;;5131981;27;20488;-73
2021/06/20 01:14:29;;;;;;;14.70;14.00;;;20.40;99.90;;;;;;5137224;27;20550;-71
2021/06/20 01:16:57;;;;;;;15.23;14.53;;;20.40;99.90;;;;;;5141058;27;20965;-71
2021/06/20 01:19:25;;;;;;;14.63;13.93;;;20.30;99.90;;;;;;5138099;27;21019;-71
2021/06/20 01:21:52;;;;;;;14.97;14.27;;;20.30;99.90;;;;;;5134815;27;20452;-71
2021/06/20 01:24:20;;;;;;;16.60;15.80;;;20.40;99.90;;;;;;5133488;27;20474;-71
2021/06/20 01:26:47;;;;;;;16.03;15.23;;;20.40;99.90;;;;;;5139239;27;20453;-70
2021/06/20 01:29:17;;;;;;;15.70;14.97;;;20.40;99.90;;;;;;5143865;27;20463;-72
2021/06/20 01:31:51;;;;;;;16.00;15.20;;;20.40;99.90;;;;;;5140207;27;21129;-71
2021/06/20 01:34:18;;;;;;;15.97;15.17;;;20.50;99.90;;;;;;5136622;27;20498;-71
2021/06/20 01:36:45;;;;;;;16.13;15.33;;;20.40;99.90;;;;;;5143829;27;20978;-70
2021/06/20 01:39:12;;;;;;;16.27;15.47;;;20.40;99.90;;;;;;5141039;27;20466;-71
2021/06/20 01:41:41;;;;;;;16.30;15.50;;;20.40;99.90;;;;;;5139802;27;20465;-72
2021/06/20 01:44:08;;;;;;;17.20;16.30;;;20.30;99.90;;;;;;5144962;27;20462;-70
2021/06/20 01:46:36;;;;;;;16.73;15.93;;;20.30;99.90;;;;;;5134583;27;20453;-71
2021/06/20 01:49:03;;;;;;;16.67;15.87;;;20.30;99.90;;;;;;5139851;27;20799;-73
2021/06/20 01:51:30;;;;;;;17.03;16.13;;;20.20;99.90;;;;;;5136357;27;20455;-71
2021/06/20 01:53:59;;;;;;;16.53;15.73;;;20.20;99.90;;;;;;5133337;27;20484;-70
2021/06/20 01:56:27;;;;;;;16.80;16.00;;;20.20;99.90;;;;;;5144087;27;20455;-71
2021/06/20 01:58:56;;;;;;;18.80;17.77;;;20.20;99.90;;;;;;5140740;27;21036;-70
2021/06/20 02:01:23;;;;;;;15.93;15.13;;;20.20;99.90;;;;;;5143561;27;21011;-72
2021/06/20 02:03:51;;;;;;;15.90;15.10;;;20.20;99.90;;;;;;5138074;27;20459;-71
2021/06/20 02:06:18;;;;;;;15.13;14.43;;;20.20;99.90;;;;;;5135128;27;20464;-70
2021/06/20 02:08:45;;;;;;;14.63;13.93;;;20.20;99.90;;;;;;5135230;27;20449;-71
2021/06/20 02:11:12;;;;;;;13.73;13.13;;;20.20;99.90;;;;;;5137314;27;20467;-73
2021/06/20 02:13:39;;;;;;;13.47;12.87;;;20.30;99.90;;;;;;5134982;27;20512;-71
2021/06/20 02:16:07;;;;;;;12.60;12.10;;;20.20;99.90;;;;;;5135860;27;20454;-72
2021/06/20 02:18:34;;;;;;;12.37;11.87;;;20.20;99.90;;;;;;5135187;27;20484;-73
2021/06/20 02:21:01;;;;;;;11.73;11.23;;;20.20;99.90;;;;;;5135634;27;20451;-73
2021/06/20 02:23:28;;;;;;;11.87;11.37;;;20.20;99.90;;;;;;5134829;27;20471;-71
2021/06/20 02:25:55;;;;;;;11.13;10.73;;;20.10;99.90;;;;;;5140147;27;20836;-72
2021/06/20 02:28:22;;;;;;;10.70;10.30;;;20.00;99.90;;;;;;5135586;27;20448;-71
2021/06/20 02:30:49;;;;;;;10.07;9.67;;;20.10;99.90;;;;;;5133908;27;20463;-72
2021/06/20 02:33:18;;;;;;;9.63;9.27;;;20.30;99.90;;;;;;5137410;27;20583;-70
2021/06/20 02:35:44;;;;;;;9.27;8.97;;;20.50;99.90;;;;;;5136276;27;20467;-71
2021/06/20 02:38:11;;;;;;;8.33;8.03;;;20.60;99.90;;;;;;5140336;27;20530;-70
2021/06/20 02:40:38;;;;;;;8.43;8.13;;;20.80;99.90;;;;;;5139991;27;20983;-71
2021/06/20 02:43:05;;;;;;;8.30;8.00;;;20.80;99.90;;;;;;5134466;27;20977;-70
2021/06/20 02:45:32;;;;;;;11.97;11.20;;;20.80;99.90;;;;;;5139191;27;20471;-71
2021/06/20 02:47:59;;;;;;;14.47;13.37;;;20.90;99.90;;;;;;5134637;27;20455;-70
2021/06/20 02:50:27;;;;;;;16.40;13.30;;;20.70;99.90;;;;;;5130841;27;20494;-73
2021/06/20 02:52:54;;;;;;;13.90;12.90;;;20.80;99.90;;;;;;5135714;27;20566;-72
2021/06/20 02:55:21;;;;;;;16.77;13.43;;;20.80;99.90;;;;;;5134021;27;20984;-71
2021/06/20 02:57:48;;;;;;;13.07;11.97;;;20.70;99.90;;;;;;5136894;27;20454;-73
2021/06/20 03:00:16;;;;;;;14.10;12.93;;;20.80;99.90;;;;;;5138053;27;20511;-73
2021/06/20 03:02:43;;;;;;;13.47;12.60;;;20.90;99.90;;;;;;5135636;27;20490;-71
2021/06/20 03:05:11;;;;;;;13.20;12.30;;;20.80;99.90;;;;;;5136462;27;21072;-71
2021/06/20 03:07:40;;;;;;;14.07;12.63;;;20.70;99.90;;;;;;5135590;27;20455;-71
2021/06/20 03:10:08;;;;;;;12.90;12.13;;;20.70;99.90;;;;;;5132985;27;20521;-70
2021/06/20 03:12:34;;;;;;;12.07;11.37;;;20.50;99.90;;;;;;5133868;27;20491;-72
2021/06/20 03:15:02;;;;;;;12.77;11.63;;;20.40;99.90;;;;;;5130538;27;20459;-71
2021/06/20 03:17:29;;;;;;;14.93;13.03;;;20.20;99.90;;;;;;5138200;27;20456;-71
2021/06/20 03:19:57;;;;;;;13.77;12.00;;;20.20;99.90;;;;;;5131861;27;20965;-71
2021/06/20 03:22:24;;;;;;;13.43;12.03;;;20.10;99.90;;;;;;5136874;27;20531;-70
2021/06/20 03:24:52;;;;;;;13.97;12.30;;;20.00;99.90;;;;;;5134143;27;20466;-71
2021/06/20 03:27:20;;;;;;;13.90;11.80;;;20.00;99.90;;;;;;5144460;27;20455;-71
2021/06/20 03:29:48;;;;;;;14.40;13.27;;;19.90;99.90;;;;;;5142903;27;20455;-71
2021/06/20 03:32:16;;;;;;;12.60;11.80;;;19.80;99.90;;;;;;5142225;27;20452;-70
2021/06/20 03:34:44;;;;;;;13.23;12.13;;;19.80;99.90;;;;;;5137663;27;20980;-71
2021/06/20 03:37:10;;;;;;;12.57;11.33;;;19.60;99.90;;;;;;5143158;27;20967;-71
2021/06/20 03:39:37;;;;;;;12.23;11.37;;;19.70;99.90;;;;;;5135889;27;20465;-71
2021/06/20 03:42:06;;;;;;;12.40;11.40;;;19.60;99.90;;;;;;5148510;27;20462;-71
2021/06/20 03:44:33;;;;;;;12.33;11.17;;;19.70;99.90;;;;;;5144257;27;20790;-70
2021/06/20 03:47:01;;;;;;;12.77;11.57;;;19.60;99.90;;;;;;5145419;27;20508;-71
2021/06/20 03:49:28;;;;;;;12.13;11.33;;;19.50;99.90;;;;;;5144213;27;20470;-71
2021/06/20 03:51:55;;;;;;;12.20;11.37;;;19.60;99.90;;;;;;5142508;27;20461;-73
2021/06/20 03:54:24;;;;;;;13.63;12.20;;;19.50;99.90;;;;;;5136396;27;20486;-71
2021/06/20 03:56:52;;;;;;;13.97;11.60;;;19.50;99.90;;;;;;5133402;27;20478;-71
2021/06/20 03:59:21;;;;;;;11.80;11.10;;;19.60;99.90;;;;;;5134988;27;20515;-71
2021/06/20 04:01:49;;;;;;;12.27;11.40;;;19.60;99.90;;;;;;5135209;27;20463;-71
2021/06/20 04:04:16;;;;;;;12.50;11.50;;;19.60;99.90;;;;;;5138540;27;20463;-74
2021/06/20 04:06:43;;;;;;;13.53;12.27;;;19.60;99.90;;;;;;5146302;27;20519;-71
2021/06/20 04:09:11;;;;;;;12.73;11.60;;;19.60;99.90;;;;;;5141597;27;20447;-74
2021/06/20 04:11:38;;;;;;;13.20;12.20;;;19.80;99.90;;;;;;5137348;27;20900;-71
2021/06/20 04:14:05;;;;;;;12.60;11.80;;;19.80;99.90;;;;;;5138750;27;20954;-71
2021/06/20 04:16:33;;;;;;;13.00;12.10;;;19.90;99.90;;;;;;5138201;27;20477;-71
2021/06/20 04:19:00;;;;;;;13.23;12.00;;;19.90;99.90;;;;;;5140239;27;21035;-71
2021/06/20 04:21:27;;;;;;;13.30;12.27;;;19.90;99.90;;;;;;5143809;27;20460;-71
2021/06/20 04:23:54;;;;;;;13.80;12.50;;;20.00;99.90;;;;;;5139137;27;20458;-71
2021/06/20 04:26:21;;;;;;;13.30;12.17;;;20.00;99.90;;;;;;5142984;27;20788;-74
2021/06/20 04:28:49;;;;;;;12.90;12.00;;;20.10;99.90;;;;;;5133471;27;20474;-71
2021/06/20 04:31:16;;;;;;;12.60;11.90;;;19.90;99.90;;;;;;5145790;27;20832;-71
2021/06/20 04:33:44;;;;;;;12.20;11.60;;;20.00;99.90;;;;;;5140940;27;21020;-73
2021/06/20 04:36:11;;;;;;;13.03;12.13;;;20.00;99.90;;;;;;5140040;27;20458;-74
2021/06/20 04:38:38;;;;;;;14.07;13.07;;;20.00;99.90;;;;;;5141712;27;20463;-71
2021/06/20 04:41:07;;;;;;;14.73;13.13;;;20.00;99.90;;;;;;5144426;27;20460;-71
2021/06/20 04:43:45;;;;;;;13.67;12.67;;;20.10;99.90;;;;;;5138651;27;20454;-72
2021/06/20 04:46:23;;;;;;;14.10;12.80;;;20.20;99.90;;;;;;5141070;27;20459;-71
2021/06/20 04:48:52;;;;;;;14.37;13.33;;;20.20;99.90;;;;;;5141853;27;20460;-71
2021/06/20 04:51:19;;;;;;;13.23;12.53;;;20.30;99.90;;;;;;5140165;27;20716;-73
2021/06/20 04:53:47;;;;;;;13.03;12.20;;;20.30;99.90;;;;;;5138062;27;20490;-72
2021/06/20 04:56:14;;;;;;;14.97;13.63;;;20.30;99.90;;;;;;5144141;27;20488;-71
2021/06/20 04:58:41;;;;;;;14.47;13.50;;;20.30;99.90;;;;;;5142634;27;20537;-71
2021/06/20 05:01:08;;;;;;;14.40;13.40;;;20.20;99.90;;;;;;5142975;27;20482;-72
2021/06/20 05:03:35;;;;;;;13.73;13.00;;;20.30;99.90;;;;;;5141265;27;20469;-73
2021/06/20 05:06:03;;;;;;;13.40;12.40;;;20.30;99.90;;;;;;5135665;27;20470;-70
2021/06/20 05:08:30;;;;;;;13.90;12.83;;;20.40;99.90;;;;;;5145644;27;20470;-71
2021/06/20 05:10:57;;;;;;;14.00;13.10;;;20.40;99.90;;;;;;5142113;27;20807;-71
2021/06/20 05:13:24;;;;;;;14.77;13.60;;;20.40;99.90;;;;;;5140220;27;20484;-72
2021/06/20 05:15:51;;;;;;;14.80;13.80;;;20.60;99.90;;;;;;5143634;27;21128;-71
2021/06/20 05:18:18;;;;;;;14.80;13.40;;;20.60;99.90;;;;;;5143362;27;20476;-74
2021/06/20 05:20:45;;;;;;;14.37;13.53;;;20.70;99.90;;;;;;5142319;27;20463;-70
2021/06/20 05:23:13;;;;;;;14.30;13.10;;;20.80;99.90;;;;;;5140080;27;20725;-71
2021/06/20 05:25:41;;;;;;;21.60;14.00;;;20.80;99.90;;;;;;5134830;27;20466;-70
2021/06/20 05:28:08;;;;;;;15.17;14.20;;;20.80;99.90;;;;;;5135805;27;20811;-70
2021/06/20 05:30:35;;;;;;;14.80;13.87;;;20.80;99.90;;;;;;5142140;27;20475;-73
2021/06/20 05:33:02;;;;;;;15.20;14.30;;;20.80;99.90;;;;;;5141198;27;20860;-71
2021/06/20 05:35:29;;;;;;;14.73;14.03;;;20.70;99.90;;;;;;5133889;27;20861;-70
2021/06/20 05:37:56;;;;;;;15.20;13.90;;;20.70;99.90;;;;;;5137213;27;20503;-72
2021/06/20 05:40:24;;;;;;;13.80;13.00;;;20.80;99.90;;;;;;5140851;27;20538;-73
2021/06/20 05:42:51;;;;;;;14.70;13.33;;;20.90;99.90;;;;;;5139969;27;20444;-70
2021/06/20 05:45:18;;;;;;;13.83;12.93;;;20.90;99.90;;;;;;5140245;27;20459;-70
2021/06/20 05:47:45;;;;;;;14.77;13.63;;;20.90;99.90;;;;;;5139626;27;20463;-71
2021/06/20 05:50:13;;;;;;;14.63;13.60;;;21.00;99.90;;;;;;5139794;27;20467;-70
2021/06/20 05:52:40;;;;;;;13.87;13.00;;;21.00;99.90;;;;;;5137745;27;21010;-69
2021/06/20 05:55:08;;;;;;;14.83;13.70;;;21.00;99.90;;;;;;5142380;27;20495;-70
2021/06/20 05:57:37;;;;;;;15.17;14.17;;;21.00;99.90;;;;;;5140649;27;20455;-72
2021/06/20 06:00:05;;;;;;;14.53;13.63;;;21.20;99.90;;;;;;5143074;27;20452;-70
2021/06/20 06:02:32;;;;;;;15.03;14.23;;;21.30;99.90;;;;;;5130229;27;20886;-71
2021/06/20 06:04:59;;;;;;;15.37;14.37;;;21.50;99.90;;;;;;5137712;27;20460;-70
2021/06/20 06:07:26;;;;;;;14.63;13.80;;;21.60;99.90;;;;;;5137234;27;20466;-70
2021/06/20 06:09:52;;;;;;;14.40;13.70;;;21.60;99.90;;;;;;5135925;27;20461;-73
2021/06/20 06:12:23;;;;;;;14.20;13.53;;;21.60;99.90;;;;;;5138111;27;20459;-70
2021/06/20 06:14:52;;;;;;;15.00;14.10;;;21.50;99.90;;;;;;5138381;27;20957;-73
2021/06/20 06:17:20;;;;;;;15.23;14.03;;;21.40;99.90;;;;;;5138344;27;20520;-71
2021/06/20 06:19:48;;;;;;;15.10;14.10;;;21.40;99.90;;;;;;5134500;27;21194;-70
2021/06/20 06:22:16;;;;;;;14.80;13.90;;;21.40;99.90;;;;;;5130035;27;20564;-71
2021/06/20 06:24:44;;;;;;;15.37;14.20;;;21.50;99.90;;;;;;5132563;27;20478;-71
2021/06/20 06:27:12;;;;;;;15.10;14.20;;;21.60;99.90;;;;;;5139403;27;20460;-70
2021/06/20 06:29:39;;;;;;;14.73;13.87;;;21.60;99.90;;;;;;5142042;27;20462;-72
2021/06/20 06:32:08;;;;;;;15.83;14.50;;;21.80;99.90;;;;;;5146678;27;20850;-71
2021/06/20 06:34:36;;;;;;;14.57;13.57;;;21.90;99.90;;;;;;5137059;27;20491;-70
2021/06/20 06:37:03;;;;;;;16.10;14.70;;;22.20;99.90;;;;;;5142286;27;20471;-70
2021/06/20 06:39:31;;;;;;;14.83;14.03;;;22.10;99.90;;;;;;5139580;27;20467;-71
2021/06/20 06:41:58;;;;;;;15.97;14.60;;;22.20;99.90;;;;;;5134704;27;20451;-71
2021/06/20 06:44:26;;;;;;;15.80;14.47;;;22.20;99.90;;;;;;5142570;27;20524;-71
2021/06/20 06:46:53;;;;;;;15.50;14.60;;;22.10;99.90;;;;;;5143600;27;20972;-71
2021/06/20 06:49:22;;;;;;;14.97;14.13;;;22.30;99.90;;;;;;5142395;27;20564;-71
2021/06/20 06:51:51;;;;;;;14.97;13.80;;;22.60;99.90;;;;;;5135224;27;20466;-71
2021/06/20 06:54:18;;;;;;;14.80;13.73;;;22.50;99.90;;;;;;5137098;27;20467;-70
2021/06/20 06:56:45;;;;;;;14.73;13.93;;;22.50;99.90;;;;;;5137404;27;20890;-71
2021/06/20 06:59:13;;;;;;;14.17;13.47;;;22.70;99.90;;;;;;5139863;27;20464;-74
2021/06/20 07:01:41;;;;;;;14.03;13.27;;;22.60;99.90;;;;;;5147148;27;20487;-71
2021/06/20 07:04:08;;;;;;;14.87;14.07;;;22.60;99.90;;;;;;5140302;27;20460;-72
2021/06/20 07:06:36;;;;;;;14.77;13.87;;;22.80;99.90;;;;;;5141379;27;20459;-75
2021/06/20 07:09:04;;;;;;;14.50;13.40;;;22.50;99.90;;;;;;5136353;27;20474;-71
2021/06/20 07:11:31;;;;;;;15.30;13.73;;;22.60;99.90;;;;;;5140573;27;20462;-72
2021/06/20 07:13:58;;;;;;;14.57;13.70;;;22.50;99.90;;;;;;5136431;27;20569;-72
2021/06/20 07:16:25;;;;;;;14.20;13.40;;;22.50;99.90;;;;;;5142509;27;20451;-72
2021/06/20 07:18:52;;;;;;;14.60;13.70;;;22.60;99.90;;;;;;5143367;27;20489;-71
2021/06/20 07:21:19;;;;;;;14.43;13.73;;;22.60;99.90;;;;;;5143106;27;20458;-72
2021/06/20 07:23:48;;;;;;;14.63;13.70;;;22.80;99.90;;;;;;5135230;27;20534;-73
2021/06/20 07:26:14;;;;;;;14.73;14.03;;;23.00;99.90;;;;;;5138285;27;20456;-72
2021/06/20 07:28:42;;;;;;;14.40;13.70;;;23.20;99.90;;;;;;5141197;27;20466;-72
2021/06/20 07:31:09;;;;;;;14.30;13.60;;;23.20;99.90;;;;;;5138075;27;20566;-72
2021/06/20 07:33:36;;;;;;;14.50;13.80;;;23.40;99.90;;;;;;5137393;27;20456;-75
2021/06/20 07:36:05;;;;;;;14.70;13.57;;;23.40;99.90;;;;;;5134634;27;20487;-74
2021/06/20 07:38:32;;;;;;;14.60;13.90;;;23.60;99.90;;;;;;5139460;27;20451;-74
2021/06/20 07:41:00;;;;;;;14.10;13.40;;;23.80;99.90;;;;;;5135404;27;20454;-72
2021/06/20 07:43:26;;;;;;;14.53;13.77;;;23.90;99.90;;;;;;5139852;27;20996;-75
2021/06/20 07:45:56;;;;;;;14.73;13.83;;;23.70;99.90;;;;;;5136362;27;20480;-72
2021/06/20 07:48:24;;;;;;;14.43;13.73;;;23.50;99.90;;;;;;5139096;27;20451;-72
2021/06/20 07:50:51;;;;;;;13.93;13.23;;;23.60;99.90;;;;;;5138225;27;20455;-72
2021/06/20 07:53:18;;;;;;;14.93;13.70;;;23.70;99.90;;;;;;5135998;27;20469;-72
2021/06/20 07:55:45;;;;;;;14.30;13.60;;;23.80;99.90;;;;;;5136418;27;21019;-73
2021/06/20 07:58:13;;;;;;;13.90;13.20;;;23.90;99.90;;;;;;5140789;27;20451;-74
2021/06/20 08:00:41;;;;;;;14.83;13.80;;;24.20;99.90;;;;;;5145079;27;20466;-72
2021/06/20 08:03:08;;;;;;;14.83;13.60;;;24.30;99.90;;;;;;5138990;27;20455;-71
2021/06/20 08:05:35;;;;;;;14.20;13.47;;;24.40;99.90;;;;;;5141065;27;20464;-72
2021/06/20 08:08:03;;;;;;;15.03;14.27;;;24.10;99.90;;;;;;5141047;27;20475;-72
2021/06/20 08:10:31;;;;;;;15.27;14.17;;;24.60;99.90;;;;;;5138227;27;20451;-72
2021/06/20 08:12:58;;;;;;;14.67;13.80;;;25.40;99.90;;;;;;5142648;27;20456;-73
2021/06/20 08:15:26;;;;;;;14.20;13.60;;;25.90;99.90;;;;;;5136557;27;20976;-72
2021/06/20 08:17:53;;;;;;;15.40;14.60;;;26.10;99.90;;;;;;5140291;27;20557;-74
2021/06/20 08:20:20;;;;;;;15.03;14.23;;;25.20;99.90;;;;;;5137461;27;20463;-71
2021/06/20 08:22:47;;;;;;;15.27;14.40;;;24.90;99.90;;;;;;5133900;27;20456;-70
2021/06/20 08:25:14;;;;;;;15.20;14.27;;;24.80;99.90;;;;;;5137374;27;20466;-73
2021/06/20 08:27:42;;;;;;;14.40;13.70;;;25.30;99.90;;;;;;5141008;27;20459;-72
2021/06/20 08:30:11;;;;;;;14.37;13.67;;;25.20;99.90;;;;;;5139695;27;20889;-73
2021/06/20 08:32:40;;;;;;;15.70;14.90;;;25.00;99.90;;;;;;5138613;27;20921;-71
2021/06/20 08:35:09;;;;;;;15.20;14.30;;;25.50;99.90;;;;;;5144158;27;20728;-72
2021/06/20 08:37:36;;;;;;;14.80;14.03;;;25.10;99.90;;;;;;5153697;27;20450;-71
2021/06/20 08:40:05;;;;;;;14.70;13.80;;;25.00;99.90;;;;;;5141196;27;20991;-71
2021/06/20 08:42:33;;;;;;;14.40;13.50;;;24.80;99.90;;;;;;5139357;27;20460;-71
2021/06/20 08:45:00;;;;;;;13.60;13.00;;;24.90;99.90;;;;;;5137348;27;20574;-72
2021/06/20 08:47:27;;;;;;;13.70;13.10;;;25.00;99.90;;;;;;5142551;27;20969;-71
2021/06/20 08:49:55;;;;;;;14.23;13.30;;;25.00;99.90;;;;;;5135996;27;20970;-73
2021/06/20 08:52:22;;;;;;;14.77;13.70;;;25.50;99.90;;;;;;5135424;27;21328;-71
2021/06/20 08:55:02;;;;;;;14.00;13.20;;;26.50;99.90;;;;;;5133608;27;20573;-70
2021/06/20 08:57:32;;;;;;;14.00;13.10;;;27.20;99.90;;;;;;5138246;27;20516;-70
2021/06/20 08:59:59;;;;;;;14.40;13.50;;;26.80;99.90;;;;;;5133382;27;23042;-70
2021/06/20 09:02:27;;;;;;;13.50;12.90;;;26.70;99.90;;;;;;5136818;27;20546;-71
2021/06/20 09:04:59;;;;;;;14.07;13.30;;;26.90;99.90;;;;;;5142632;27;20470;-69
2021/06/20 09:07:34;;;;;;;14.27;13.57;;;27.10;99.90;;;;;;5135900;27;20471;-70
2021/06/20 09:10:16;;;;;;;14.93;14.13;;;27.80;99.90;;;;;;5135700;27;20493;-72
2021/06/20 09:12:48;;;;;;;14.87;14.10;;;27.60;99.90;;;;;;5132962;27;20483;-70
2021/06/20 09:15:18;;;;;;;14.10;13.40;;;27.50;99.90;;;;;;5137194;27;20471;-71
2021/06/20 09:17:49;;;;;;;13.80;13.10;;;27.20;99.90;;;;;;5129699;27;20555;-70
2021/06/20 09:20:19;;;;;;;14.33;13.40;;;27.50;99.90;;;;;;5140948;27;20474;-71
2021/06/20 09:22:56;;;;;;;14.40;13.50;;;27.80;99.90;;;;;;5139742;27;20465;-71
2021/06/20 09:25:28;;;;;;;14.10;13.40;;;27.50;99.90;;;;;;5139367;27;20459;-72
2021/06/20 09:27:57;;;;;;;14.30;13.60;;;27.80;99.90;;;;;;5129433;27;20448;-69
2021/06/20 09:30:25;;;;;;;14.30;13.60;;;28.00;99.90;;;;;;5135158;27;20466;-71
2021/06/20 09:32:53;;;;;;;14.77;13.83;;;28.70;99.90;;;;;;5139514;27;20456;-70
2021/06/20 09:35:22;;;;;;;14.00;13.40;;;28.70;99.90;;;;;;5142326;27;20490;-71
2021/06/20 09:37:54;;;;;;;13.80;13.10;;;28.20;99.90;;;;;;5148423;27;20475;-71
2021/06/20 09:40:22;;;;;;;15.33;14.40;;;28.20;99.90;;;;;;5139459;27;20550;-72
2021/06/20 09:42:50;;;;;;;14.53;13.93;;;27.70;99.90;;;;;;5140668;27;20964;-70
2021/06/20 09:45:27;;;;;;;14.33;13.43;;;28.50;99.90;;;;;;5140584;27;20456;-72
2021/06/20 09:47:54;;;;;;;14.10;13.40;;;29.10;99.90;;;;;;5139221;27;20487;-72
2021/06/20 09:50:35;;;;;;;13.70;13.10;;;29.50;99.90;;;;;;5142493;27;20460;-69
2021/06/20 09:53:02;;;;;;;14.30;13.60;;;29.20;99.50;;;;;;5131932;27;20452;-72
2021/06/20 09:55:29;;;;;;;13.50;12.90;;;28.20;99.90;;;;;;5136393;27;20498;-70
2021/06/20 09:58:01;;;;;;;14.40;13.70;;;28.20;99.90;;;;;;5140887;27;20467;-70
2021/06/20 10:00:37;;;;;;;13.70;13.10;;;28.80;99.90;;;;;;5142032;27;20960;-70
2021/06/20 10:03:04;;;;;;;14.83;14.13;;;29.60;99.80;;;;;;5140276;27;20459;-70
2021/06/20 10:05:32;;;;;;;14.20;13.40;;;30.20;99.00;;;;;;5139927;27;20473;-70
2021/06/20 10:08:01;;;;;;;14.07;13.30;;;29.80;97.80;;;;;;5141558;27;20460;-70
2021/06/20 10:10:29;;;;;;;13.40;12.80;;;29.80;99.10;;;;;;5138239;27;20960;-70
2021/06/20 10:12:56;;;;;;;13.97;13.27;;;29.60;97.20;;;;;;5140493;27;20810;-70
2021/06/20 10:15:23;;;;;;;13.83;13.20;;;29.80;96.90;;;;;;5134089;27;20483;-71
2021/06/20 10:17:57;;;;;;;13.67;13.10;;;29.70;97.50;;;;;;5138266;27;20479;-71
2021/06/20 10:20:31;;;;;;;13.20;12.70;;;29.60;97.70;;;;;;5132086;27;20459;-74
2021/06/20 10:23:00;;;;;;;13.60;13.00;;;28.60;97.80;;;;;;5138555;27;22395;-70
2021/06/20 10:25:29;;;;;;;14.50;13.60;;;29.30;98.00;;;;;;5140070;27;20467;-71
2021/06/20 10:28:02;;;;;;;14.20;13.50;;;30.10;96.80;;;;;;5133677;27;20459;-70
2021/06/20 10:30:33;;;;;;;14.50;13.80;;;30.60;94.90;;;;;;5135286;27;20467;-72
2021/06/20 10:33:07;;;;;;;14.23;13.30;;;31.00;94.50;;;;;;5132070;27;20544;-71
2021/06/20 10:35:35;;;;;;;14.07;13.37;;;31.20;94.50;;;;;;5139752;27;20526;-72
2021/06/20 10:38:04;;;;;;;13.47;12.70;;;29.90;95.00;;;;;;5141353;27;20489;-73
2021/06/20 10:40:33;;;;;;;13.47;12.87;;;30.00;95.30;;;;;;5141031;27;20508;-72
2021/06/20 10:43:01;;;;;;;14.00;13.40;;;29.50;96.10;;;;;;5141323;27;20466;-73
2021/06/20 10:45:31;;;;;;;14.20;13.60;;;29.30;96.30;;;;;;5139771;27;20455;-72
2021/06/20 10:48:00;;;;;;;13.70;12.70;;;30.00;95.80;;;;;;5136553;27;20540;-73
2021/06/20 10:50:39;;;;;;;14.00;13.30;;;29.20;96.10;;;;;;5140901;27;20760;-74
2021/06/20 10:53:08;;;;;;;14.37;13.50;;;28.60;96.80;;;;;;5136620;27;20535;-72
2021/06/20 10:55:44;;;;;;;13.60;13.00;;;28.30;98.00;;;;;;5138498;27;20831;-72
2021/06/20 10:58:23;;;;;;;14.03;13.43;;;28.90;96.40;;;;;;5139134;27;20904;-75
2021/06/20 11:00:51;;;;;;;15.00;14.30;;;29.20;97.20;;;;;;5141342;27;20480;-71
2021/06/20 11:03:27;;;;;;;14.83;14.13;;;29.30;97.00;;;;;;5139831;27;20539;-72
2021/06/20 11:05:57;;;;;;;14.07;13.37;;;29.20;97.20;;;;;;5140243;27;20491;-73
2021/06/20 11:08:34;;;;;;;14.37;13.63;;;29.70;97.30;;;;;;5141200;27;20517;-72
2021/06/20 11:11:10;;;;;;;14.20;13.60;;;30.00;95.90;;;;;;5138142;27;20530;-72
2021/06/20 11:13:39;;;;;;;14.40;13.60;;;29.80;96.40;;;;;;5136432;27;20489;-72
2021/06/20 11:16:08;;;;;;;14.67;13.97;;;29.70;96.90;;;;;;5140875;27;20901;-72
2021/06/20 11:18:36;;;;;;;13.83;13.13;;;29.50;94.70;;;;;;5135320;27;20493;-74
2021/06/20 11:21:03;;;;;;;14.17;13.57;;;29.60;95.60;;;;;;5141675;27;20544;-74
2021/06/20 11:23:32;;;;;;;14.10;13.30;;;29.90;96.90;;;;;;5130610;27;20457;-73
2021/06/20 11:26:00;;;;;;;13.37;12.73;;;29.50;95.70;;;;;;5131184;27;20819;-77
2021/06/20 11:28:27;;;;;;;14.83;13.53;;;29.30;95.00;;;;;;5132947;27;20568;-74
2021/06/20 11:31:07;;;;;;;12.70;12.20;;;28.20;96.70;;;;;;5135531;27;20469;-73
2021/06/20 11:33:35;;;;;;;12.77;12.17;;;29.00;96.50;;;;;;5137637;27;20844;-74
2021/06/20 11:36:02;;;;;;;13.87;13.27;;;28.80;96.00;;;;;;5136772;27;20817;-77
2021/06/20 11:38:39;;;;;;;13.90;13.30;;;29.00;95.50;;;;;;5139695;27;20456;-73
2021/06/20 11:41:15;;;;;;;14.60;13.80;;;29.20;95.80;;;;;;5137274;27;21095;-76
2021/06/20 11:43:57;;;;;;;13.10;12.60;;;29.00;95.60;;;;;;5137734;27;20911;-76
2021/06/20 11:46:26;;;;;;;14.33;13.73;;;29.00;95.70;;;;;;5134855;27;20495;-75
2021/06/20 11:48:55;;;;;;;13.60;13.00;;;28.70;95.60;;;;;;5140081;27;20457;-78
2021/06/20 11:51:34;;;;;;;13.90;13.20;;;28.60;95.60;;;;;;5146874;27;20459;-73
2021/06/20 11:54:17;;;;;;;14.53;13.87;;;28.20;96.70;;;;;;5144119;27;20534;-77
2021/06/20 11:56:45;;;;;;;14.03;12.93;;;28.20;96.20;;;;;;5146954;27;20585;-73
2021/06/20 11:59:13;;;;;;;13.43;12.63;;;28.60;96.20;;;;;;5142622;27;20501;-74
2021/06/20 12:01:49;;;;;;;14.10;13.20;;;28.50;95.70;;;;;;5140164;27;20452;-74
2021/06/20 12:04:21;;;;;;;13.20;12.60;;;28.90;94.90;;;;;;5136619;27;20465;-74
2021/06/20 12:06:49;;;;;;;13.03;12.53;;;29.70;93.70;;;;;;5139345;27;20464;-75
2021/06/20 12:09:17;;;;;;;13.27;12.67;;;30.20;92.90;;;;;;5145024;27;20456;-74
2021/06/20 12:11:45;;;;;;;13.07;12.50;;;30.10;92.20;;;;;;5146040;27;20459;-78
2021/06/20 12:14:24;;;;;;;13.40;12.80;;;30.50;91.90;;;;;;5136490;27;20462;-76
2021/06/20 12:16:53;;;;;;;12.47;11.83;;;30.50;91.40;;;;;;5140889;27;20475;-78
2021/06/20 12:19:22;;;;;;;13.63;13.00;;;30.90;91.20;;;;;;5139423;27;21020;-79
2021/06/20 12:21:50;;;;;;;13.23;12.63;;;31.40;90.50;;;;;;5143634;27;20453;-77
2021/06/20 12:24:19;;;;;;;12.83;12.20;;;31.40;90.80;;;;;;5142839;27;20452;-75
2021/06/20 12:26:51;;;;;;;13.17;12.47;;;31.80;88.70;;;;;;5141671;27;20455;-75
2021/06/20 12:29:18;;;;;;;13.20;12.60;;;32.30;88.80;;;;;;5141610;27;20465;-76
2021/06/20 12:31:59;;;;;;;14.03;13.33;;;32.20;89.60;;;;;;5141513;27;20455;-75
2021/06/20 12:34:27;;;;;;;13.57;12.93;;;32.80;87.60;;;;;;5139402;27;20459;-76